Time;durP1;ratioP1;P1;durP2;ratioP2;P2;SDS_P1;SDS_P2;PMS_P1;PMS_P2;Temp;Humidity;BMP_temperature;BMP_pressure;BME280_temperature;BME280_humidity;BME280_pressure;Samples;Min_cycle;Max_cycle;Signal;HPM_P1;HPM_P2
2022/05/29 00:00:17;;;;;;;10.55;1.15;;;9.50;99.90;;;;;;5075944;28;20044;-84
2022/05/29 00:02:43;;;;;;;0.00;0.00;;;9.50;99.90;;;;;;5075964;28;20048;-83
2022/05/29 00:05:11;;;;;;;0.00;0.00;;;9.50;99.90;;;;;;5076452;28;20384;-83
2022/05/29 00:07:38;;;;;;;0.00;0.00;;;9.50;99.90;;;;;;5059579;28;20048;-83
2022/05/29 00:10:07;;;;;;;0.08;0.03;;;9.50;99.90;;;;;;5059539;28;20194;-84
2022/05/29 00:12:33;;;;;;;0.00;0.00;;;9.50;99.90;;;;;;5059397;28;20091;-84
2022/05/29 00:14:58;;;;;;;0.13;0.08;;;9.50;99.90;;;;;;5075977;28;20495;-84
2022/05/29 00:17:24;;;;;;;0.00;0.00;;;9.50;99.90;;;;;;5076249;28;20373;-83
2022/05/29 00:19:50;;;;;;;0.00;0.00;;;9.50;99.90;;;;;;5075997;28;20040;-83
2022/05/29 00:22:19;;;;;;;0.00;0.00;;;9.50;99.90;;;;;;5075977;28;20047;-84
2022/05/29 00:24:46;;;;;;;0.00;0.00;;;9.50;99.90;;;;;;5075837;28;20040;-84
2022/05/29 00:27:12;;;;;;;0.00;0.00;;;9.50;99.90;;;;;;5075807;28;20102;-83
2022/05/29 00:29:39;;;;;;;0.00;0.00;;;9.50;99.90;;;;;;5075654;28;20083;-83
2022/05/29 00:32:05;;;;;;;0.00;0.00;;;9.50;99.90;;;;;;5059093;28;20093;-83
2022/05/29 00:34:32;;;;;;;0.00;0.00;;;9.50;99.90;;;;;;5059362;28;20140;-83
2022/05/29 00:36:58;;;;;;;0.15;0.15;;;9.60;99.90;;;;;;5075929;28;20052;-84
2022/05/29 00:39:25;;;;;;;0.00;0.00;;;9.60;99.90;;;;;;5075245;28;20105;-83
2022/05/29 00:41:52;;;;;;;0.00;0.00;;;9.60;99.90;;;;;;5058739;28;20103;-83
2022/05/29 00:44:23;;;;;;;0.00;0.00;;;9.60;99.90;;;;;;5075571;28;20048;-83
2022/05/29 00:46:58;;;;;;;0.00;0.00;;;9.60;99.90;;;;;;5074960;28;20181;-84
2022/05/29 00:49:25;;;;;;;;;;;9.60;99.90;;;;;;5059053;28;20522;-83
2022/05/29 00:52:00;;;;;;;0.17;0.10;;;9.60;99.90;;;;;;5058949;28;20007;-83
2022/05/29 00:54:26;;;;;;;;;;;9.60;99.90;;;;;;5075883;28;20055;-84
2022/05/29 00:56:53;;;;;;;0.68;0.17;;;9.60;99.90;;;;;;5075116;28;19921;-83
2022/05/29 00:59:24;;;;;;;1.00;0.65;;;9.60;99.90;;;;;;5057895;28;20496;-83
2022/05/29 01:01:51;;;;;;;0.00;0.00;;;9.50;99.90;;;;;;5075416;28;20051;-83
2022/05/29 01:04:17;;;;;;;0.00;0.00;;;9.50;99.90;;;;;;5058555;28;20396;-83
2022/05/29 01:06:43;;;;;;;0.08;0.08;;;9.60;99.90;;;;;;5058038;28;20048;-84
2022/05/29 01:09:10;;;;;;;0.00;0.00;;;9.60;99.90;;;;;;5075050;28;20045;-83
2022/05/29 01:12:06;;;;;;;0.00;0.00;;;9.60;99.90;;;;;;5074969;28;20454;-83
2022/05/29 01:14:55;;;;;;;0.00;0.00;;;9.50;99.90;;;;;;5058183;28;20049;-83
2022/05/29 01:17:42;;;;;;;0.35;0.22;;;9.60;99.90;;;;;;5074696;28;20041;-83
2022/05/29 01:20:17;;;;;;;0.28;0.13;;;9.60;99.90;;;;;;5074447;28;20056;-83
2022/05/29 01:23:00;;;;;;;;;;;9.60;99.90;;;;;;5075590;28;20186;-83
2022/05/29 01:25:41;;;;;;;0.10;0.10;;;9.60;99.90;;;;;;5058350;28;20347;-83
2022/05/29 01:28:32;;;;;;;0.00;0.00;;;9.60;99.90;;;;;;5057497;28;20061;-83
2022/05/29 01:31:16;;;;;;;0.00;0.00;;;9.60;99.90;;;;;;5074817;28;20066;-83
2022/05/29 01:33:45;;;;;;;0.00;0.00;;;9.50;99.90;;;;;;5074079;28;20052;-82
2022/05/29 01:36:20;;;;;;;0.00;0.00;;;9.50;99.90;;;;;;5074441;28;20067;-83
2022/05/29 01:39:00;;;;;;;0.38;0.22;;;9.50;99.90;;;;;;5058153;28;20090;-83
2022/05/29 01:41:39;;;;;;;0.00;0.00;;;9.40;99.90;;;;;;5057821;28;20048;-83
2022/05/29 01:44:29;;;;;;;0.00;0.00;;;9.30;99.90;;;;;;5074383;28;20054;-83
2022/05/29 01:47:04;;;;;;;0.00;0.00;;;9.30;99.90;;;;;;5057511;28;20044;-83
2022/05/29 01:49:36;;;;;;;0.03;0.00;;;9.30;99.90;;;;;;5074306;28;20132;-83
2022/05/29 01:52:14;;;;;;;13.68;1.13;;;9.20;99.90;;;;;;5074296;28;20062;-83
2022/05/29 01:55:03;;;;;;;0.00;0.00;;;9.20;99.90;;;;;;5057252;28;20123;-83
2022/05/29 01:57:34;;;;;;;1.58;0.30;;;9.20;99.90;;;;;;5071194;28;20561;-82
2022/05/29 02:00:18;;;;;;;0.00;0.00;;;9.20;99.90;;;;;;5072601;28;20041;-83
2022/05/29 02:02:58;;;;;;;0.00;0.00;;;9.10;99.90;;;;;;5057233;28;20114;-82
2022/05/29 02:05:33;;;;;;;0.00;0.00;;;9.10;99.90;;;;;;5057371;28;20041;-82
2022/05/29 02:08:10;;;;;;;0.00;0.00;;;9.10;99.90;;;;;;5073987;28;20044;-82
2022/05/29 02:10:46;;;;;;;0.10;0.05;;;9.10;99.90;;;;;;5057387;28;20060;-82
2022/05/29 02:13:20;;;;;;;0.00;0.00;;;9.00;99.90;;;;;;5073571;28;20063;-82
2022/05/29 02:15:58;;;;;;;0.00;0.00;;;9.00;99.90;;;;;;5073237;28;20139;-83
2022/05/29 02:18:36;;;;;;;0.00;0.00;;;9.00;99.90;;;;;;5057779;28;20052;-83
2022/05/29 02:21:07;;;;;;;0.00;0.00;;;9.00;99.90;;;;;;5073747;28;20045;-83
2022/05/29 02:23:38;;;;;;;0.15;0.15;;;9.00;99.90;;;;;;5073552;28;20135;-82
2022/05/29 02:26:07;;;;;;;0.00;0.00;;;9.00;99.90;;;;;;5073788;28;20049;-83
2022/05/29 02:28:36;;;;;;;0.00;0.00;;;9.00;99.90;;;;;;5056880;28;20443;-82
2022/05/29 02:31:16;;;;;;;0.10;0.10;;;9.00;99.90;;;;;;5073443;28;20063;-82
2022/05/29 02:33:54;;;;;;;0.00;0.00;;;9.10;99.90;;;;;;5073848;28;20147;-83
2022/05/29 02:36:39;;;;;;;0.00;0.00;;;9.10;99.90;;;;;;5073791;28;20392;-83
2022/05/29 02:39:50;;;;;;;0.00;0.00;;;9.10;99.90;;;;;;5073548;28;20099;-82
2022/05/29 02:42:28;;;;;;;0.00;0.00;;;9.10;99.90;;;;;;5035670;28;20088;-82
2022/05/29 02:45:12;;;;;;;0.00;0.00;;;9.10;99.90;;;;;;5019194;28;20190;-82
2022/05/29 02:47:45;;;;;;;3.83;0.52;;;9.10;99.90;;;;;;5018584;28;20440;-82
2022/05/29 02:50:18;;;;;;;0.00;0.00;;;9.10;99.90;;;;;;5035820;28;20386;-82
2022/05/29 02:52:44;;;;;;;0.00;0.00;;;9.10;99.90;;;;;;5035703;28;20187;-82
2022/05/29 02:55:11;;;;;;;0.00;0.00;;;9.10;99.90;;;;;;5035563;28;20127;-82
2022/05/29 02:57:38;;;;;;;0.00;0.00;;;9.10;99.90;;;;;;5018687;28;20052;-82
2022/05/29 03:00:11;;;;;;;0.10;0.10;;;9.10;99.90;;;;;;5035413;28;20396;-82
2022/05/29 03:02:49;;;;;;;0.00;0.00;;;9.20;99.90;;;;;;5035963;28;20045;-83
2022/05/29 03:05:49;;;;;;;0.00;0.00;;;9.20;99.90;;;;;;5035205;28;20067;-83
2022/05/29 03:08:33;;;;;;;0.00;0.00;;;9.20;99.90;;;;;;5035174;28;20132;-82
2022/05/29 03:11:12;;;;;;;0.00;0.00;;;9.30;99.90;;;;;;5035325;28;20049;-82
2022/05/29 03:13:52;;;;;;;0.00;0.00;;;9.20;99.90;;;;;;5035379;28;20075;-82
2022/05/29 03:16:23;;;;;;;0.38;0.20;;;9.20;99.90;;;;;;5034942;28;20068;-83
2022/05/29 03:19:16;;;;;;;0.00;0.00;;;9.20;99.90;;;;;;5048356;28;20052;-83
2022/05/29 03:21:51;;;;;;;0.00;0.00;;;9.20;99.90;;;;;;5072996;28;20045;-82
2022/05/29 03:24:22;;;;;;;;;;;9.30;99.90;;;;;;5073276;28;20048;-82
2022/05/29 03:27:12;;;;;;;0.00;0.00;;;9.30;99.90;;;;;;5072814;28;19977;-82
2022/05/29 03:29:44;;;;;;;0.00;0.00;;;9.20;99.90;;;;;;5073428;28;20048;-82
2022/05/29 03:32:11;;;;;;;0.00;0.00;;;9.30;99.90;;;;;;5056560;28;20056;-83
2022/05/29 03:34:37;;;;;;;0.10;0.10;;;9.20;99.90;;;;;;5072767;28;20098;-82
2022/05/29 03:37:03;;;;;;;0.00;0.00;;;9.20;99.90;;;;;;5056146;28;20052;-83
2022/05/29 03:39:28;;;;;;;0.00;0.00;;;9.20;99.90;;;;;;5072450;28;20502;-82
2022/05/29 03:41:54;;;;;;;0.00;0.00;;;9.10;99.90;;;;;;5073317;28;20079;-82
2022/05/29 03:44:23;;;;;;;0.00;0.00;;;9.20;99.90;;;;;;5072637;28;20085;-83
2022/05/29 03:46:49;;;;;;;0.00;0.00;;;9.10;99.90;;;;;;5055834;28;20143;-82
2022/05/29 03:49:17;;;;;;;0.20;0.20;;;9.00;99.90;;;;;;5072480;28;20130;-83
2022/05/29 03:51:43;;;;;;;0.00;0.00;;;9.00;99.90;;;;;;5072569;28;20384;-83
2022/05/29 03:54:10;;;;;;;0.00;0.00;;;9.10;99.90;;;;;;5072533;28;20094;-82
2022/05/29 03:56:37;;;;;;;0.00;0.00;;;9.00;99.90;;;;;;5072452;28;20090;-83
2022/05/29 03:59:03;;;;;;;0.10;0.00;;;9.10;99.90;;;;;;5055761;28;20107;-82
2022/05/29 04:01:30;;;;;;;0.00;0.00;;;9.10;99.90;;;;;;5072489;28;20110;-83
2022/05/29 04:03:56;;;;;;;0.00;0.00;;;9.10;99.90;;;;;;5072512;28;20045;-83
2022/05/29 04:06:24;;;;;;;0.00;0.00;;;9.10;99.90;;;;;;5072352;28;20041;-82
2022/05/29 04:14:22;;;;;;;0.00;0.00;;;9.20;99.90;;;;;;5072283;28;20576;-83
2022/05/29 04:16:48;;;;;;;0.85;0.20;;;9.30;99.90;;;;;;5055063;28;20448;-82
2022/05/29 04:19:14;;;;;;;0.10;0.10;;;9.30;99.90;;;;;;5056006;28;20032;-83
2022/05/29 04:21:40;;;;;;;12.10;0.77;;;9.30;99.90;;;;;;5059025;28;20468;-83
2022/05/29 04:24:06;;;;;;;0.00;0.00;;;9.30;99.90;;;;;;5074945;28;20091;-82
2022/05/29 04:26:33;;;;;;;0.00;0.00;;;9.40;99.90;;;;;;5059012;28;20413;-82
2022/05/29 04:29:01;;;;;;;0.00;0.00;;;9.30;99.90;;;;;;5075718;28;20048;-82
2022/05/29 04:31:27;;;;;;;0.00;0.00;;;9.40;99.90;;;;;;5058684;28;20403;-82
2022/05/29 04:33:53;;;;;;;0.00;0.00;;;9.40;99.90;;;;;;5075606;28;20102;-81
2022/05/29 04:36:19;;;;;;;0.00;0.00;;;9.40;99.90;;;;;;5058479;28;20052;-83
2022/05/29 04:38:45;;;;;;;0.00;0.00;;;9.40;99.90;;;;;;5058690;28;20426;-83
2022/05/29 04:41:11;;;;;;;0.00;0.00;;;9.40;99.90;;;;;;5075381;28;20048;-83
2022/05/29 04:43:37;;;;;;;0.30;0.10;;;9.40;99.90;;;;;;5075692;28;20041;-83
2022/05/29 04:46:03;;;;;;;0.10;0.10;;;9.50;99.90;;;;;;5075375;28;20051;-83
2022/05/29 04:48:30;;;;;;;0.00;0.00;;;9.50;99.90;;;;;;5058701;28;20056;-83
2022/05/29 04:51:00;;;;;;;0.55;0.43;;;9.50;99.90;;;;;;5075284;28;20048;-84
2022/05/29 04:53:28;;;;;;;8.68;0.28;;;9.60;99.90;;;;;;5058306;28;20060;-84
2022/05/29 04:55:55;;;;;;;0.50;0.43;;;9.70;99.90;;;;;;5075471;28;20040;-83
2022/05/29 04:58:22;;;;;;;1.02;0.30;;;9.70;99.90;;;;;;5074763;28;20377;-83
2022/05/29 05:00:48;;;;;;;0.10;0.10;;;9.70;99.90;;;;;;5058246;28;20099;-83
2022/05/29 05:03:14;;;;;;;0.00;0.00;;;9.80;99.90;;;;;;5057979;28;20056;-83
2022/05/29 05:05:40;;;;;;;0.20;0.20;;;9.90;99.90;;;;;;5075084;28;20044;-83
2022/05/29 05:08:06;;;;;;;0.52;0.52;;;9.90;99.90;;;;;;5075121;28;20079;-83
2022/05/29 05:10:31;;;;;;;0.00;0.00;;;9.90;99.90;;;;;;5058662;28;20074;-83
2022/05/29 05:12:57;;;;;;;0.43;0.28;;;10.00;99.90;;;;;;5075037;28;20047;-84
2022/05/29 05:15:22;;;;;;;0.00;0.00;;;10.00;99.90;;;;;;5051669;28;20547;-83
2022/05/29 05:17:48;;;;;;;0.00;0.00;;;10.00;99.90;;;;;;5069555;28;20128;-84
2022/05/29 05:20:15;;;;;;;1.08;0.30;;;10.00;99.90;;;;;;5051492;28;20140;-84
2022/05/29 05:22:41;;;;;;;0.00;0.00;;;10.00;99.90;;;;;;5074976;28;20082;-83
2022/05/29 05:25:08;;;;;;;0.00;0.00;;;10.00;99.90;;;;;;5074691;28;20048;-84
2022/05/29 05:27:34;;;;;;;0.00;0.00;;;10.00;99.90;;;;;;5051868;28;20057;-84
2022/05/29 05:30:00;;;;;;;0.00;0.00;;;10.00;99.90;;;;;;5062680;28;20055;-83
2022/05/29 05:32:25;;;;;;;0.00;0.00;;;10.00;99.90;;;;;;5071130;28;20400;-83
2022/05/29 05:34:51;;;;;;;0.00;0.00;;;10.00;99.90;;;;;;5074558;28;20393;-88
2022/05/29 05:37:17;;;;;;;0.10;0.10;;;10.10;99.90;;;;;;5073030;28;20182;-84
2022/05/29 05:39:43;;;;;;;0.00;0.00;;;10.10;99.90;;;;;;5046542;28;20067;-81
2022/05/29 05:42:08;;;;;;;0.00;0.00;;;10.10;99.90;;;;;;5046928;28;20132;-81
2022/05/29 05:44:34;;;;;;;0.00;0.00;;;10.20;99.90;;;;;;5045819;28;20480;-82
2022/05/29 05:47:00;;;;;;;0.00;0.00;;;10.20;99.90;;;;;;5063024;28;20044;-81
2022/05/29 05:49:25;;;;;;;0.00;0.00;;;10.20;99.90;;;;;;5047286;28;20494;-81
2022/05/29 05:51:51;;;;;;;0.00;0.00;;;10.20;99.90;;;;;;5061812;28;20040;-84
2022/05/29 05:54:18;;;;;;;0.05;0.05;;;10.20;99.90;;;;;;5062470;28;20546;-86
2022/05/29 05:56:47;;;;;;;0.22;0.22;;;10.10;99.90;;;;;;5046775;28;20106;-81
2022/05/29 05:59:12;;;;;;;0.00;0.00;;;10.20;99.90;;;;;;5044514;28;20053;-82
2022/05/29 06:01:38;;;;;;;0.10;0.10;;;10.20;99.90;;;;;;5062673;28;20484;-81
2022/05/29 06:04:04;;;;;;;2.75;0.90;;;10.10;99.90;;;;;;5063058;28;20045;-81
2022/05/29 06:06:30;;;;;;;0.00;0.00;;;10.20;99.90;;;;;;5044509;28;20060;-84
2022/05/29 06:08:56;;;;;;;0.00;0.00;;;10.20;99.90;;;;;;5062734;28;20381;-83
2022/05/29 06:11:24;;;;;;;0.00;0.00;;;10.20;99.90;;;;;;5061624;28;20485;-86
2022/05/29 06:13:49;;;;;;;0.00;0.00;;;10.20;99.90;;;;;;5045251;28;20044;-83
2022/05/29 06:16:15;;;;;;;0.00;0.00;;;10.20;99.90;;;;;;5063209;28;20453;-83
2022/05/29 06:18:41;;;;;;;0.70;0.30;;;10.30;99.90;;;;;;5062737;28;20463;-81
2022/05/29 06:21:07;;;;;;;0.00;0.00;;;10.40;99.90;;;;;;5061383;28;20407;-81
2022/05/29 06:23:34;;;;;;;0.28;0.28;;;10.40;99.90;;;;;;5060255;28;20056;-86
2022/05/29 06:26:02;;;;;;;0.35;0.08;;;10.60;99.90;;;;;;5043448;28;20564;-83
2022/05/29 06:28:28;;;;;;;0.00;0.00;;;10.60;99.90;;;;;;5062078;28;20064;-82
2022/05/29 06:30:54;;;;;;;0.00;0.00;;;10.70;99.90;;;;;;5061004;28;20040;-85
2022/05/29 06:33:19;;;;;;;0.00;0.00;;;10.80;99.90;;;;;;5043540;28;20048;-81
2022/05/29 06:35:45;;;;;;;0.13;0.00;;;10.90;99.90;;;;;;5045935;28;20178;-81
2022/05/29 06:38:11;;;;;;;0.30;0.30;;;11.00;99.90;;;;;;5061474;28;20045;-80
2022/05/29 06:40:42;;;;;;;0.00;0.00;;;11.00;99.90;;;;;;5060887;28;20127;-80
2022/05/29 06:43:09;;;;;;;0.00;0.00;;;11.10;99.90;;;;;;5044345;28;20814;-80
2022/05/29 06:45:35;;;;;;;0.47;0.47;;;11.10;99.90;;;;;;5060616;28;20055;-80
2022/05/29 06:48:01;;;;;;;0.00;0.00;;;11.10;99.90;;;;;;5062181;28;20040;-83
2022/05/29 06:50:27;;;;;;;0.00;0.00;;;11.10;99.90;;;;;;5061016;28;20485;-86
2022/05/29 06:52:53;;;;;;;0.00;0.00;;;11.10;99.90;;;;;;5036560;28;20055;-83
2022/05/29 06:55:21;;;;;;;0.00;0.00;;;11.10;99.90;;;;;;5052831;28;20060;-83
2022/05/29 06:57:47;;;;;;;0.03;0.03;;;11.00;99.90;;;;;;5039296;28;20056;-83
2022/05/29 07:08:31;;;;;;;1.65;0.55;;;11.10;99.90;;;;;;5073287;28;20057;-83
2022/05/29 07:11:19;;;;;;;0.10;0.10;;;11.10;99.90;;;;;;5056399;28;20175;-83
2022/05/29 07:13:44;;;;;;;1.55;0.52;;;11.00;99.90;;;;;;5073085;28;20049;-83
2022/05/29 07:16:10;;;;;;;0.00;0.00;;;11.00;99.90;;;;;;5072868;28;20526;-84
2022/05/29 07:18:36;;;;;;;0.00;0.00;;;11.00;99.90;;;;;;5072561;28;20093;-83
2022/05/29 07:21:04;;;;;;;0.00;0.00;;;10.90;99.90;;;;;;5073195;28;20052;-83
2022/05/29 07:23:30;;;;;;;0.00;0.00;;;10.70;99.90;;;;;;5056120;28;20423;-83
2022/05/29 07:25:57;;;;;;;0.85;0.47;;;10.60;99.90;;;;;;5072463;28;20400;-83
2022/05/29 07:28:23;;;;;;;0.60;0.57;;;10.60;99.90;;;;;;5069190;28;20051;-84
2022/05/29 07:30:51;;;;;;;0.00;0.00;;;10.60;99.90;;;;;;5061026;28;20075;-84
2022/05/29 07:33:17;;;;;;;0.00;0.00;;;10.50;99.90;;;;;;5045624;28;20049;-86
2022/05/29 07:35:42;;;;;;;0.08;0.08;;;10.60;99.90;;;;;;5045816;28;20472;-84
2022/05/29 07:38:09;;;;;;;0.00;0.00;;;10.60;99.90;;;;;;5044514;28;20068;-84
2022/05/29 07:40:34;;;;;;;4.80;0.55;;;10.60;99.90;;;;;;5040921;28;20051;-84
2022/05/29 07:45:46;;;;;;;0.00;0.00;;;10.70;99.90;;;;;;5053273;28;20428;-84
2022/05/29 07:48:14;;;;;;;0.00;0.00;;;10.70;99.90;;;;;;5035967;28;20545;-84
2022/05/29 07:50:39;;;;;;;1.13;0.32;;;10.70;99.90;;;;;;5052603;28;20057;-84
2022/05/29 07:53:05;;;;;;;0.10;0.10;;;10.70;99.90;;;;;;5035760;28;20107;-84
2022/05/29 07:55:32;;;;;;;0.40;0.40;;;10.70;99.90;;;;;;5036945;28;20381;-83
2022/05/29 07:57:57;;;;;;;0.10;0.10;;;10.80;99.90;;;;;;5039881;28;20049;-84
2022/05/29 08:00:24;;;;;;;0.00;0.00;;;10.80;99.90;;;;;;5039515;28;20055;-83
2022/05/29 08:02:49;;;;;;;0.00;0.00;;;10.80;99.90;;;;;;5039735;28;20049;-84
2022/05/29 08:05:17;;;;;;;0.00;0.00;;;10.90;99.90;;;;;;5039886;28;20060;-84
2022/05/29 08:07:45;;;;;;;0.05;0.05;;;11.00;99.90;;;;;;5039511;28;20182;-83
2022/05/29 08:10:12;;;;;;;0.00;0.00;;;11.10;99.90;;;;;;5056131;28;20045;-83
2022/05/29 08:12:37;;;;;;;3.15;0.30;;;11.20;99.90;;;;;;5056050;28;20118;-83
2022/05/29 08:15:03;;;;;;;0.00;0.00;;;11.30;99.90;;;;;;5039160;28;20064;-83
2022/05/29 08:17:29;;;;;;;0.10;0.10;;;11.40;99.90;;;;;;5040934;28;20456;-84
2022/05/29 08:19:55;;;;;;;0.10;0.10;;;11.50;99.90;;;;;;5057440;28;20476;-84
2022/05/29 08:22:21;;;;;;;0.30;0.08;;;11.60;99.90;;;;;;5040189;28;20061;-83
2022/05/29 08:33:05;;;;;;;0.00;0.00;;;11.80;99.90;;;;;;5057014;28;20044;-83
2022/05/29 08:35:31;;;;;;;0.10;0.10;;;11.90;99.90;;;;;;5040283;28;20053;-83
2022/05/29 08:37:58;;;;;;;0.22;0.22;;;11.90;99.90;;;;;;5039037;28;20154;-84
2022/05/29 08:40:24;;;;;;;0.00;0.00;;;11.90;99.90;;;;;;5056783;28;20404;-83
2022/05/29 08:42:50;;;;;;;0.00;0.00;;;12.00;99.90;;;;;;5040761;28;20048;-83
2022/05/29 08:45:18;;;;;;;0.00;0.00;;;11.90;99.90;;;;;;5056657;28;20045;-84
2022/05/29 08:47:45;;;;;;;0.45;0.45;;;11.90;99.90;;;;;;5056199;28;20087;-84
2022/05/29 08:50:35;;;;;;;0.00;0.00;;;11.90;99.90;;;;;;5057935;28;20450;-84
2022/05/29 08:53:20;;;;;;;0.00;0.00;;;11.90;99.90;;;;;;5057204;28;20052;-85
2022/05/29 08:55:52;;;;;;;0.00;0.00;;;11.90;99.90;;;;;;5039006;28;20056;-84
2022/05/29 08:58:52;;;;;;;0.00;0.00;;;11.80;99.90;;;;;;5055028;28;20060;-83
2022/05/29 09:01:28;;;;;;;0.00;0.00;;;11.80;99.90;;;;;;5055826;28;20064;-83
2022/05/29 09:03:58;;;;;;;0.00;0.00;;;11.80;99.90;;;;;;5055326;28;20052;-83
2022/05/29 09:06:35;;;;;;;0.00;0.00;;;11.70;99.90;;;;;;5055846;28;20044;-83
2022/05/29 09:09:09;;;;;;;0.00;0.00;;;11.70;99.90;;;;;;5055660;28;20061;-83
2022/05/29 09:11:51;;;;;;;0.20;0.20;;;11.70;99.90;;;;;;5038441;28;20088;-83
2022/05/29 09:14:30;;;;;;;0.00;0.00;;;11.60;99.90;;;;;;5039331;28;20060;-84
2022/05/29 09:17:06;;;;;;;0.00;0.00;;;11.70;99.90;;;;;;5038642;28;20056;-83
2022/05/29 09:19:53;;;;;;;0.00;0.00;;;11.70;99.90;;;;;;5039020;28;20131;-84
2022/05/29 09:22:29;;;;;;;2.17;0.65;;;11.80;99.90;;;;;;5055337;28;20055;-83
2022/05/29 09:25:08;;;;;;;0.10;0.10;;;11.90;99.90;;;;;;5038552;28;20087;-83
2022/05/29 09:27:36;;;;;;;0.10;0.10;;;12.00;99.90;;;;;;5055191;28;20499;-83
2022/05/29 09:30:04;;;;;;;0.00;0.00;;;12.10;99.90;;;;;;5073048;28;20044;-84
2022/05/29 09:32:32;;;;;;;0.90;0.22;;;12.20;99.90;;;;;;5073732;28;20131;-84
2022/05/29 09:35:10;;;;;;;3.20;0.85;;;12.30;99.90;;;;;;5070712;28;20443;-82
2022/05/29 09:37:52;;;;;;;0.00;0.00;;;12.30;99.90;;;;;;5072270;28;20066;-83
2022/05/29 09:40:27;;;;;;;0.00;0.00;;;12.40;99.90;;;;;;5073276;28;20053;-83
2022/05/29 09:42:54;;;;;;;0.00;0.00;;;12.50;99.90;;;;;;5072487;28;20063;-83
2022/05/29 09:45:20;;;;;;;0.00;0.00;;;12.70;99.90;;;;;;5073177;28;20056;-82
2022/05/29 09:50:59;;;;;;;0.10;0.00;;;12.60;99.90;;;;;;5072317;28;20079;-83
2022/05/29 09:53:30;;;;;;;0.00;0.00;;;12.30;99.90;;;;;;5034018;28;20411;-83
2022/05/29 09:56:02;;;;;;;0.00;0.00;;;12.20;99.90;;;;;;5034800;28;20176;-84
2022/05/29 09:58:51;;;;;;;3.70;1.05;;;12.10;99.90;;;;;;5033762;28;20187;-82
2022/05/29 10:01:30;;;;;;;0.00;0.00;;;12.10;99.90;;;;;;5034412;28;20053;-84
2022/05/29 10:03:59;;;;;;;0.00;0.00;;;12.10;99.90;;;;;;5034204;28;20060;-83
2022/05/29 10:06:33;;;;;;;0.00;0.00;;;12.20;99.90;;;;;;5017078;28;20079;-82
2022/05/29 10:09:18;;;;;;;0.00;0.00;;;12.40;99.90;;;;;;5033449;28;20041;-83
2022/05/29 10:11:49;;;;;;;0.00;0.00;;;12.50;99.90;;;;;;5017686;28;20049;-84
2022/05/29 10:14:33;;;;;;;0.00;0.00;;;12.60;99.90;;;;;;5018025;28;20049;-82
2022/05/29 10:16:58;;;;;;;0.00;0.00;;;12.70;99.90;;;;;;5033716;28;20056;-83
2022/05/29 10:19:34;;;;;;;0.00;0.00;;;12.90;99.90;;;;;;5015634;28;20056;-82
2022/05/29 10:22:02;;;;;;;0.00;0.00;;;13.00;99.90;;;;;;5034137;28;20113;-82
2022/05/29 10:24:40;;;;;;;0.00;0.00;;;13.20;99.90;;;;;;5018417;28;20064;-82
2022/05/29 10:27:29;;;;;;;0.00;0.00;;;13.20;99.90;;;;;;5018423;28;20045;-84
2022/05/29 10:30:01;;;;;;;0.00;0.00;;;13.30;99.90;;;;;;5064788;28;20071;-83
2022/05/29 10:32:33;;;;;;;0.00;0.00;;;13.10;99.90;;;;;;5057062;28;20045;-84
2022/05/29 10:35:27;;;;;;;0.00;0.00;;;13.00;99.90;;;;;;5056971;28;20411;-84
2022/05/29 10:37:53;;;;;;;0.45;0.45;;;13.00;99.90;;;;;;5073190;28;20091;-84
2022/05/29 10:40:26;;;;;;;0.00;0.00;;;12.80;99.90;;;;;;5073313;28;20044;-83
2022/05/29 10:43:00;;;;;;;0.00;0.00;;;12.80;99.90;;;;;;5056435;28;20223;-83
2022/05/29 10:45:43;;;;;;;0.00;0.00;;;12.80;99.90;;;;;;5056040;28;20060;-84
2022/05/29 10:48:39;;;;;;;0.03;0.00;;;12.90;99.90;;;;;;5073203;28;20099;-83
2022/05/29 10:51:28;;;;;;;0.00;0.00;;;12.90;99.90;;;;;;5073280;28;20139;-84
2022/05/29 10:54:09;;;;;;;0.10;0.10;;;12.90;99.90;;;;;;5056831;28;20080;-84
2022/05/29 10:57:12;;;;;;;0.00;0.00;;;12.90;99.90;;;;;;5072997;28;20182;-84
2022/05/29 10:59:47;;;;;;;0.00;0.00;;;12.90;99.90;;;;;;5073121;28;20052;-84
2022/05/29 11:05:23;;;;;;;0.25;0.25;;;12.80;99.90;;;;;;5073014;28;20074;-84
2022/05/29 11:08:04;;;;;;;0.00;0.00;;;12.70;99.90;;;;;;5073022;28;20049;-84
2022/05/29 11:10:52;;;;;;;0.00;0.00;;;12.70;99.90;;;;;;5056822;28;20373;-84
2022/05/29 11:14:03;;;;;;;0.52;0.20;;;12.50;99.90;;;;;;5072807;28;20046;-84
2022/05/29 11:16:46;;;;;;;0.00;0.00;;;12.40;99.90;;;;;;5069923;28;20044;-84
2022/05/29 11:19:47;;;;;;;0.00;0.00;;;12.30;99.90;;;;;;5056257;28;20044;-84
2022/05/29 11:22:25;;;;;;;0.00;0.00;;;12.30;99.90;;;;;;5056216;28;20122;-84
2022/05/29 11:25:06;;;;;;;0.00;0.00;;;12.30;99.90;;;;;;5073328;28;20044;-84
2022/05/29 11:27:44;;;;;;;0.00;0.00;;;12.30;99.90;;;;;;5056353;28;20056;-83
2022/05/29 11:30:21;;;;;;;0.00;0.00;;;12.40;99.90;;;;;;5073518;28;20080;-84
2022/05/29 11:32:57;;;;;;;0.00;0.00;;;12.50;99.90;;;;;;5076843;28;20059;-84
2022/05/29 11:35:46;;;;;;;0.00;0.00;;;12.60;99.90;;;;;;5060229;28;20060;-84
2022/05/29 11:38:27;;;;;;;0.00;0.00;;;12.90;99.90;;;;;;5076936;28;20075;-84
2022/05/29 11:41:00;;;;;;;0.03;0.03;;;13.10;99.90;;;;;;5060232;28;20083;-83
2022/05/29 11:43:47;;;;;;;0.00;0.00;;;13.40;99.90;;;;;;5077347;28;20455;-84
2022/05/29 11:52:43;;;;;;;0.00;0.00;;;13.50;99.90;;;;;;5076589;28;20139;-84
2022/05/29 11:55:18;;;;;;;0.00;0.00;;;13.30;99.90;;;;;;5054376;28;20056;-90
2022/05/29 11:58:05;;;;;;;0.00;0.00;;;13.10;99.90;;;;;;5074733;28;20186;-83
2022/05/29 12:00:38;;;;;;;0.00;0.00;;;12.90;99.90;;;;;;5076387;28;20442;-83
2022/05/29 12:03:28;;;;;;;0.00;0.00;;;12.70;99.90;;;;;;5076426;28;20045;-84
2022/05/29 12:06:30;;;;;;;1.55;0.47;;;12.70;99.90;;;;;;5076919;28;20556;-83
2022/05/29 12:09:04;;;;;;;0.00;0.00;;;12.60;99.90;;;;;;5059519;28;20048;-84
2022/05/29 12:12:07;;;;;;;0.00;0.00;;;12.60;99.90;;;;;;5076483;28;20045;-84
2022/05/29 12:14:39;;;;;;;0.00;0.00;;;12.70;99.90;;;;;;5075574;28;20543;-83
2022/05/29 12:17:23;;;;;;;0.00;0.00;;;12.80;99.90;;;;;;5076062;28;20119;-83
2022/05/29 12:19:59;;;;;;;0.00;0.00;;;12.90;99.90;;;;;;5058998;28;20048;-83
2022/05/29 12:22:49;;;;;;;0.05;0.05;;;13.00;99.90;;;;;;5075931;28;20071;-83
2022/05/29 12:25:33;;;;;;;0.00;0.00;;;13.20;99.90;;;;;;5059279;28;20052;-84
2022/05/29 12:28:04;;;;;;;0.00;0.00;;;13.50;99.90;;;;;;5058545;28;20481;-83
2022/05/29 12:30:43;;;;;;;0.05;0.00;;;13.70;99.90;;;;;;5075712;28;20080;-83
2022/05/29 12:33:15;;;;;;;0.00;0.00;;;13.80;99.90;;;;;;5076139;28;20043;-83
2022/05/29 12:36:19;;;;;;;0.00;0.00;;;13.90;99.90;;;;;;5070168;28;20048;-84
2022/05/29 12:39:01;;;;;;;0.00;0.00;;;13.80;99.90;;;;;;5035903;28;20064;-82
2022/05/29 12:41:50;;;;;;;0.00;0.00;;;13.60;99.90;;;;;;5035066;28;20100;-84
2022/05/29 12:44:41;;;;;;;0.00;0.00;;;13.40;99.90;;;;;;5035806;28;20057;-83
2022/05/29 12:47:18;;;;;;;0.38;0.10;;;13.10;99.90;;;;;;5018810;28;20390;-87
2022/05/29 12:50:17;;;;;;;0.03;0.00;;;13.00;99.90;;;;;;5019184;28;20049;-83
2022/05/29 12:52:45;;;;;;;0.00;0.00;;;12.80;99.90;;;;;;5035109;28;20057;-84
2022/05/29 12:55:22;;;;;;;4.00;1.00;;;12.70;99.90;;;;;;5034814;28;20064;-82
2022/05/29 12:58:15;;;;;;;0.00;0.00;;;12.60;99.90;;;;;;5035123;28;20107;-83
2022/05/29 13:00:50;;;;;;;0.00;0.00;;;12.50;99.90;;;;;;5035567;28;20072;-86
2022/05/29 13:03:35;;;;;;;0.00;0.00;;;12.40;99.90;;;;;;5030022;28;20072;-83
2022/05/29 13:06:31;;;;;;;0.00;0.00;;;12.50;99.90;;;;;;5046218;28;20128;-83
2022/05/29 13:09:18;;;;;;;0.13;0.00;;;12.60;99.90;;;;;;5034996;28;20084;-82
2022/05/29 13:11:57;;;;;;;0.00;0.00;;;12.70;99.90;;;;;;5037415;28;20127;-84
2022/05/29 13:14:25;;;;;;;0.00;0.00;;;12.80;99.90;;;;;;5020113;28;20088;-83
2022/05/29 13:17:10;;;;;;;0.00;0.00;;;13.00;99.90;;;;;;5038298;28;20056;-84
2022/05/29 13:20:17;;;;;;;0.00;0.00;;;13.10;99.90;;;;;;5060790;28;20045;-83
2022/05/29 13:23:02;;;;;;;0.00;0.00;;;13.30;99.90;;;;;;5045730;28;20129;-83
2022/05/29 13:25:56;;;;;;;0.00;0.00;;;13.50;99.90;;;;;;5059932;28;20041;-83
2022/05/29 13:28:43;;;;;;;0.00;0.00;;;13.70;99.90;;;;;;5037030;28;20087;-83
2022/05/29 13:31:19;;;;;;;0.00;0.00;;;13.70;99.90;;;;;;5036208;28;20053;-82
2022/05/29 13:33:52;;;;;;;0.00;0.00;;;13.60;99.90;;;;;;5020160;28;20499;-82
2022/05/29 13:36:49;;;;;;;0.00;0.00;;;13.50;99.90;;;;;;5019863;28;20485;-83
2022/05/29 13:39:23;;;;;;;0.00;0.00;;;13.30;99.90;;;;;;4958323;28;20178;-82
2022/05/29 13:42:05;;;;;;;0.00;0.00;;;13.20;99.90;;;;;;4974516;28;20058;-83
2022/05/29 13:44:35;;;;;;;0.00;0.00;;;13.00;99.90;;;;;;4958267;28;20061;-83
2022/05/29 13:47:19;;;;;;;5.40;0.55;;;12.90;99.90;;;;;;4958396;28;20066;-84
2022/05/29 13:50:11;;;;;;;0.00;0.00;;;12.70;99.90;;;;;;4958323;28;20093;-83
2022/05/29 13:53:00;;;;;;;0.10;0.10;;;12.50;99.90;;;;;;4974028;28;20146;-84
2022/05/29 13:55:50;;;;;;;0.00;0.00;;;12.40;99.90;;;;;;4958299;28;20514;-84
2022/05/29 14:04:37;;;;;;;0.00;0.00;;;12.30;99.90;;;;;;4960269;28;20057;-82
2022/05/29 14:07:08;;;;;;;0.00;0.00;;;12.30;99.90;;;;;;4977343;28;20061;-82